Time;durP1;ratioP1;P1;durP2;ratioP2;P2;SDS_P1;SDS_P2;PMS_P1;PMS_P2;Temp;Humidity;BMP_temperature;BMP_pressure;BME280_temperature;BME280_humidity;BME280_pressure;Samples;Min_cycle;Max_cycle;Signal;HPM_P1;HPM_P2
2022/01/24 00:00:35;;;;;;;24.57;17.60;;;6.70;99.90;;;;;;6206595;23;20466;-78
2022/01/24 00:03:03;;;;;;;26.00;17.60;;;6.70;99.90;;;;;;6206166;23;20209;-79
2022/01/24 00:05:30;;;;;;;25.23;18.57;;;6.70;99.90;;;;;;6206269;23;20174;-79
2022/01/24 00:07:56;;;;;;;26.27;18.47;;;6.70;99.90;;;;;;6207282;23;20185;-79
2022/01/24 00:10:26;;;;;;;22.07;16.33;;;6.70;99.90;;;;;;6205906;23;20166;-80
2022/01/24 00:13:09;;;;;;;17.40;14.33;;;6.60;99.90;;;;;;6206045;23;20563;-80
2022/01/24 00:15:53;;;;;;;18.30;13.57;;;6.60;99.90;;;;;;6206118;23;20618;-77
2022/01/24 00:26:40;;;;;;;16.17;13.23;;;6.60;99.90;;;;;;6206007;23;20170;-80
2022/01/24 00:26:48;;;;;;;15.80;12.70;;;6.60;99.90;;;;;;6206073;23;20197;-80
2022/01/24 00:29:17;;;;;;;17.97;14.33;;;6.60;99.90;;;;;;6205843;23;20205;-80
2022/01/24 00:31:44;;;;;;;14.53;11.53;;;6.60;99.90;;;;;;6204342;23;20228;-81
2022/01/24 00:34:12;;;;;;;21.03;14.40;;;6.60;99.90;;;;;;6206615;23;20181;-79
2022/01/24 00:36:39;;;;;;;17.70;13.60;;;6.60;99.90;;;;;;6206323;23;20181;-78
2022/01/24 00:39:08;;;;;;;17.17;12.10;;;6.60;99.90;;;;;;6205518;23;20216;-79
2022/01/24 00:41:45;;;;;;;15.13;11.67;;;6.60;99.90;;;;;;6205665;23;20177;-79
2022/01/24 00:46:56;;;;;;;19.07;14.00;;;6.60;99.90;;;;;;6192387;23;20500;-79
2022/01/24 00:49:45;;;;;;;19.03;14.50;;;6.60;99.90;;;;;;6205302;23;20285;-78
2022/01/24 00:54:57;;;;;;;17.20;13.03;;;6.50;99.90;;;;;;6205572;23;20476;-79
2022/01/24 00:57:24;;;;;;;18.37;14.43;;;6.50;99.90;;;;;;6204801;23;20174;-79
2022/01/24 00:59:51;;;;;;;17.80;14.20;;;6.50;99.90;;;;;;6204834;23;20170;-80
2022/01/24 01:02:20;;;;;;;18.53;14.73;;;6.50;99.90;;;;;;6205420;23;20170;-79
2022/01/24 01:05:03;;;;;;;16.73;13.30;;;6.50;99.90;;;;;;6205954;23;20198;-79
2022/01/24 01:07:37;;;;;;;18.57;13.73;;;6.50;99.90;;;;;;6204829;23;20200;-80
2022/01/24 01:18:19;;;;;;;17.47;12.83;;;6.50;99.90;;;;;;6205765;23;20169;-81
2022/01/24 01:23:36;;;;;;;18.57;13.27;;;6.50;99.90;;;;;;6189875;23;20243;-79
2022/01/24 01:26:07;;;;;;;17.63;12.73;;;6.50;99.90;;;;;;6206405;23;20172;-79
2022/01/24 01:28:34;;;;;;;14.77;11.73;;;6.50;99.90;;;;;;6205653;23;20170;-78
2022/01/24 01:31:07;;;;;;;20.50;13.90;;;6.50;99.90;;;;;;6207033;23;20170;-79
2022/01/24 01:33:45;;;;;;;17.43;13.77;;;6.50;99.90;;;;;;6204924;23;20220;-78
2022/01/24 01:36:19;;;;;;;16.80;12.67;;;6.50;99.90;;;;;;6206132;23;20172;-80
2022/01/24 01:52:54;;;;;;;17.10;13.40;;;6.40;99.90;;;;;;6205014;23;20574;-79
2022/01/24 01:55:36;;;;;;;14.43;11.37;;;6.40;99.90;;;;;;6204778;23;20170;-80
2022/01/24 01:58:04;;;;;;;18.03;14.27;;;6.40;99.90;;;;;;6205776;23;20170;-79
2022/01/24 02:00:31;;;;;;;18.27;14.13;;;6.40;99.90;;;;;;6205095;23;20174;-78
2022/01/24 02:02:58;;;;;;;16.33;12.67;;;6.40;99.90;;;;;;6205500;23;20178;-82
2022/01/24 02:05:25;;;;;;;15.97;12.80;;;6.40;99.90;;;;;;6205674;23;20217;-80
2022/01/24 02:07:53;;;;;;;17.80;14.43;;;6.40;99.90;;;;;;6205103;23;20185;-79
2022/01/24 02:10:22;;;;;;;17.63;13.37;;;6.40;99.90;;;;;;6205834;23;20184;-81
2022/01/24 02:12:50;;;;;;;18.47;13.87;;;6.40;99.90;;;;;;6205886;23;20180;-79
2022/01/24 02:15:24;;;;;;;16.90;13.73;;;6.40;99.90;;;;;;6206098;23;20175;-78
2022/01/24 02:18:01;;;;;;;18.60;14.87;;;6.40;99.90;;;;;;6204309;23;20166;-80
2022/01/24 02:20:42;;;;;;;19.23;14.70;;;6.40;99.90;;;;;;6204598;23;20610;-81
2022/01/24 02:23:19;;;;;;;18.03;13.70;;;6.40;99.90;;;;;;6204965;23;20534;-78
2022/01/24 02:25:46;;;;;;;15.90;12.37;;;6.40;99.90;;;;;;6205637;23;20771;-79
2022/01/24 02:28:16;;;;;;;18.73;14.37;;;6.40;99.90;;;;;;6206872;23;20476;-79
2022/01/24 02:31:03;;;;;;;19.17;15.17;;;6.40;99.90;;;;;;6204248;23;20209;-80
2022/01/24 02:33:30;;;;;;;19.77;14.47;;;6.40;99.90;;;;;;6206303;23;20163;-80
2022/01/24 02:35:57;;;;;;;17.60;14.13;;;6.40;99.90;;;;;;6206284;23;20178;-79
2022/01/24 02:38:38;;;;;;;19.50;15.00;;;6.30;99.90;;;;;;6204608;23;20181;-80
2022/01/24 02:49:36;;;;;;;18.97;14.20;;;6.30;99.90;;;;;;6205567;23;20193;-78
2022/01/24 02:52:05;;;;;;;21.27;16.20;;;6.30;99.90;;;;;;6204944;23;20182;-79
2022/01/24 02:54:35;;;;;;;20.90;16.13;;;6.30;99.90;;;;;;6205030;23;20220;-78
2022/01/24 02:57:02;;;;;;;18.10;14.63;;;6.30;99.90;;;;;;6205375;23;20802;-78
2022/01/24 02:59:29;;;;;;;21.37;15.63;;;6.30;99.90;;;;;;6204468;23;20185;-77
2022/01/24 03:01:56;;;;;;;18.00;13.83;;;6.30;99.90;;;;;;6205830;23;20174;-77
2022/01/24 03:04:24;;;;;;;17.50;14.13;;;6.30;99.90;;;;;;6204945;23;20204;-78
2022/01/24 03:06:51;;;;;;;17.70;14.10;;;6.30;99.90;;;;;;6204930;23;20178;-78
2022/01/24 03:09:18;;;;;;;21.13;16.00;;;6.30;99.90;;;;;;6205313;23;20185;-78
2022/01/24 03:12:04;;;;;;;21.07;15.77;;;6.30;99.90;;;;;;6204871;23;20898;-77
2022/01/24 03:14:33;;;;;;;19.00;14.20;;;6.30;99.90;;;;;;6205072;23;20629;-78
2022/01/24 03:17:01;;;;;;;19.90;14.43;;;6.30;99.90;;;;;;6204487;23;20512;-80
2022/01/24 03:19:28;;;;;;;18.77;13.97;;;6.30;99.90;;;;;;6204158;23;20178;-79
2022/01/24 03:21:55;;;;;;;21.27;16.00;;;6.30;99.90;;;;;;6205640;23;20178;-80
2022/01/24 03:24:22;;;;;;;21.30;16.70;;;6.30;99.90;;;;;;6204483;23;20198;-79
2022/01/24 03:26:51;;;;;;;20.97;15.77;;;6.30;99.90;;;;;;6204179;23;20313;-82
2022/01/24 03:29:18;;;;;;;18.33;13.90;;;6.30;99.90;;;;;;6204793;23;20205;-79
2022/01/24 03:31:45;;;;;;;19.17;14.63;;;6.30;99.90;;;;;;6204981;23;20177;-79
2022/01/24 03:34:14;;;;;;;20.57;15.10;;;6.30;99.90;;;;;;6204015;23;20220;-81
2022/01/24 03:36:42;;;;;;;15.90;12.50;;;6.30;99.90;;;;;;6204746;23;20248;-81
2022/01/24 03:39:10;;;;;;;17.77;13.93;;;6.30;99.90;;;;;;6204542;23;20253;-78
2022/01/24 03:41:37;;;;;;;18.87;14.53;;;6.30;99.90;;;;;;6203882;23;20450;-79
2022/01/24 03:44:05;;;;;;;19.37;15.07;;;6.30;99.90;;;;;;6204736;23;20204;-79
2022/01/24 03:46:47;;;;;;;18.87;14.37;;;6.30;99.90;;;;;;6205431;23;20177;-80
2022/01/24 03:49:45;;;;;;;22.70;15.97;;;6.30;99.90;;;;;;6204462;23;20220;-79
2022/01/24 03:52:07;;;;;;;20.60;15.33;;;6.30;99.90;;;;;;6204971;23;20264;-79
2022/01/24 03:54:34;;;;;;;19.37;14.40;;;6.30;99.90;;;;;;6205332;23;20173;-79
2022/01/24 03:57:01;;;;;;;18.90;14.30;;;6.30;99.90;;;;;;6205520;23;20170;-78
2022/01/24 03:59:30;;;;;;;21.80;15.53;;;6.20;99.90;;;;;;6204324;23;20430;-79
2022/01/24 04:01:57;;;;;;;22.77;17.07;;;6.30;99.90;;;;;;6204318;23;20187;-79
2022/01/24 04:04:24;;;;;;;22.67;17.70;;;6.30;99.90;;;;;;6204956;23;20194;-78
2022/01/24 04:06:50;;;;;;;23.20;16.60;;;6.30;99.90;;;;;;6204811;23;20181;-78
2022/01/24 04:09:17;;;;;;;23.87;17.80;;;6.30;99.90;;;;;;6204324;23;20394;-80
2022/01/24 04:11:44;;;;;;;22.03;16.87;;;6.30;99.90;;;;;;6204968;23;20167;-80
2022/01/24 04:14:26;;;;;;;22.50;15.97;;;6.20;99.90;;;;;;6204672;23;20833;-80
2022/01/24 04:17:06;;;;;;;18.77;14.00;;;6.20;99.90;;;;;;6204152;23;20599;-78
2022/01/24 04:22:16;;;;;;;19.17;14.23;;;6.20;99.90;;;;;;6202330;23;20174;-80
2022/01/24 04:24:44;;;;;;;20.47;16.17;;;6.20;99.90;;;;;;6203030;23;20479;-79
2022/01/24 04:27:13;;;;;;;22.33;16.73;;;6.20;99.90;;;;;;6205028;23;20197;-78
2022/01/24 04:29:40;;;;;;;19.50;15.43;;;6.20;99.90;;;;;;6178875;23;20206;-79
2022/01/24 04:32:09;;;;;;;21.67;16.50;;;6.20;99.90;;;;;;6206810;23;20185;-79
2022/01/24 04:34:36;;;;;;;21.37;15.03;;;6.20;99.90;;;;;;6207353;23;20181;-78
2022/01/24 04:37:03;;;;;;;20.57;15.43;;;6.20;99.90;;;;;;6205878;23;20166;-78
2022/01/24 04:39:30;;;;;;;20.53;15.20;;;6.20;99.90;;;;;;6205148;23;20189;-81
2022/01/24 04:41:58;;;;;;;18.83;14.20;;;6.20;99.90;;;;;;6205552;23;20181;-80
2022/01/24 04:44:46;;;;;;;17.93;13.17;;;6.20;99.90;;;;;;6204187;23;20272;-80
2022/01/24 04:47:21;;;;;;;16.63;12.20;;;6.20;99.90;;;;;;6205240;23;20174;-81
2022/01/24 04:52:40;;;;;;;17.03;13.13;;;6.20;99.90;;;;;;6204991;23;20625;-80
2022/01/24 04:55:07;;;;;;;17.47;13.30;;;6.10;99.90;;;;;;6205383;23;20165;-79
2022/01/24 04:57:34;;;;;;;16.73;12.87;;;6.10;99.90;;;;;;6204844;23;20178;-79
2022/01/24 05:00:08;;;;;;;19.47;13.87;;;6.10;99.90;;;;;;6205363;23;20431;-79
2022/01/24 05:02:36;;;;;;;18.63;13.93;;;6.10;99.90;;;;;;6204582;23;20178;-79
2022/01/24 05:05:03;;;;;;;16.57;12.67;;;6.10;99.90;;;;;;6203800;23;20186;-79
2022/01/24 05:07:30;;;;;;;19.23;14.00;;;6.10;99.90;;;;;;6204437;23;20174;-78
2022/01/24 05:10:04;;;;;;;21.03;14.27;;;6.10;99.90;;;;;;6205767;23;20174;-79
2022/01/24 05:21:21;;;;;;;19.17;12.93;;;6.20;99.90;;;;;;6205209;23;20206;-77
2022/01/24 05:23:36;;;;;;;21.50;15.30;;;6.10;99.90;;;;;;6204640;23;20278;-79
2022/01/24 05:26:05;;;;;;;19.87;13.93;;;6.10;99.90;;;;;;6204851;23;20704;-78
2022/01/24 05:28:33;;;;;;;18.27;14.17;;;6.10;99.90;;;;;;6204802;23;20193;-81
2022/01/24 05:31:01;;;;;;;20.50;15.07;;;6.10;99.90;;;;;;6207005;23;20170;-82
2022/01/24 05:33:31;;;;;;;27.03;17.50;;;6.10;99.90;;;;;;6204922;23;20219;-79
2022/01/24 05:35:58;;;;;;;21.53;16.10;;;6.10;99.90;;;;;;6205134;23;20481;-77
2022/01/24 05:38:25;;;;;;;23.07;16.17;;;6.10;99.90;;;;;;6205634;23;20174;-77
2022/01/24 05:40:53;;;;;;;23.87;16.90;;;6.20;99.90;;;;;;6204387;23;20176;-81
2022/01/24 05:43:19;;;;;;;23.43;15.90;;;6.20;99.90;;;;;;6205971;23;20174;-80
2022/01/24 05:45:46;;;;;;;24.57;16.90;;;6.20;99.90;;;;;;6205794;23;20194;-80
2022/01/24 05:48:13;;;;;;;20.40;15.00;;;6.20;99.90;;;;;;6204893;23;20883;-79
2022/01/24 05:50:41;;;;;;;23.37;16.03;;;6.20;99.90;;;;;;6205183;23;20188;-79
2022/01/24 05:53:08;;;;;;;25.30;16.63;;;6.20;99.90;;;;;;6205287;23;20178;-78
2022/01/24 05:55:35;;;;;;;22.80;16.13;;;6.20;99.90;;;;;;6205674;23;20194;-78
2022/01/24 05:58:02;;;;;;;17.93;13.03;;;6.20;99.90;;;;;;6205994;23;20178;-78
2022/01/24 06:00:29;;;;;;;20.30;13.97;;;6.10;99.90;;;;;;6204942;23;20178;-78
2022/01/24 06:02:56;;;;;;;21.57;14.30;;;6.10;99.90;;;;;;6204499;23;20445;-79
2022/01/24 06:05:22;;;;;;;22.57;15.83;;;6.10;99.90;;;;;;6204110;23;20586;-79
2022/01/24 06:07:50;;;;;;;24.30;16.27;;;6.10;99.90;;;;;;6205453;23;20179;-78
2022/01/24 06:10:17;;;;;;;21.13;14.77;;;6.10;99.90;;;;;;6205990;23;20185;-78
2022/01/24 06:12:45;;;;;;;21.90;14.97;;;6.10;99.90;;;;;;6205095;23;20218;-79
2022/01/24 06:15:12;;;;;;;22.73;15.93;;;6.10;99.90;;;;;;6205439;23;20181;-78
2022/01/24 06:17:39;;;;;;;21.70;15.43;;;6.10;99.90;;;;;;6179249;23;21026;-80
2022/01/24 06:20:07;;;;;;;24.77;16.33;;;6.10;99.90;;;;;;6205393;23;20205;-80
2022/01/24 06:22:36;;;;;;;20.03;14.97;;;6.10;99.90;;;;;;6204661;23;20507;-81
2022/01/24 06:25:05;;;;;;;20.83;14.30;;;6.10;99.90;;;;;;6205498;23;20193;-78
2022/01/24 06:27:32;;;;;;;22.13;15.10;;;6.10;99.90;;;;;;6205564;23;20194;-78
2022/01/24 06:29:59;;;;;;;22.23;16.27;;;6.10;99.90;;;;;;6204145;23;20202;-78
2022/01/24 06:32:26;;;;;;;23.43;15.80;;;6.10;99.90;;;;;;6204728;23;20174;-80
2022/01/24 06:34:53;;;;;;;23.33;16.03;;;6.10;99.90;;;;;;6205194;23;20177;-78
2022/01/24 06:37:20;;;;;;;28.20;19.13;;;6.10;99.90;;;;;;6203806;23;20177;-81
2022/01/24 06:39:47;;;;;;;25.50;17.67;;;6.10;99.90;;;;;;6205069;23;20174;-79
2022/01/24 06:42:22;;;;;;;25.90;17.63;;;6.10;99.90;;;;;;6205311;23;20174;-80
2022/01/24 06:44:48;;;;;;;30.53;19.87;;;6.10;99.90;;;;;;6203885;23;20296;-78
2022/01/24 06:47:15;;;;;;;27.40;19.13;;;6.10;99.90;;;;;;6205423;23;20185;-78
2022/01/24 06:49:42;;;;;;;26.20;16.97;;;6.10;99.90;;;;;;6204928;23;20270;-78
2022/01/24 06:52:09;;;;;;;25.17;17.47;;;6.10;99.90;;;;;;6204140;23;20186;-80
2022/01/24 06:54:37;;;;;;;25.77;17.23;;;6.10;99.90;;;;;;6205099;23;20200;-81
2022/01/24 06:57:04;;;;;;;26.50;17.67;;;6.10;99.90;;;;;;6204729;23;20556;-79
2022/01/24 06:59:33;;;;;;;26.97;18.00;;;6.10;99.90;;;;;;6203340;23;20170;-80
2022/01/24 07:02:00;;;;;;;25.57;17.27;;;6.10;99.90;;;;;;6205836;23;20205;-82
2022/01/24 07:04:26;;;;;;;28.27;17.93;;;6.10;99.90;;;;;;6206743;23;20174;-83
2022/01/24 07:06:53;;;;;;;31.50;21.17;;;6.10;99.90;;;;;;6205925;23;20205;-81
2022/01/24 07:09:20;;;;;;;31.97;21.87;;;6.00;99.90;;;;;;6205208;23;20575;-79
2022/01/24 07:11:48;;;;;;;32.70;21.70;;;6.10;99.90;;;;;;6204878;23;20173;-81
2022/01/24 07:14:15;;;;;;;28.63;19.83;;;6.10;99.90;;;;;;6204785;23;20317;-80
2022/01/24 07:19:26;;;;;;;31.90;20.63;;;6.10;99.90;;;;;;6185265;23;20184;-83
2022/01/24 07:21:53;;;;;;;24.07;16.83;;;6.10;99.90;;;;;;6206014;23;20180;-82
2022/01/24 07:24:20;;;;;;;26.90;17.93;;;6.10;99.90;;;;;;6205853;23;20170;-80
2022/01/24 07:26:47;;;;;;;29.33;19.57;;;6.10;99.90;;;;;;6204678;23;20202;-80
2022/01/24 07:29:14;;;;;;;25.80;17.13;;;6.10;99.90;;;;;;6205436;23;20205;-79
2022/01/24 07:31:41;;;;;;;30.87;19.03;;;6.10;99.90;;;;;;6204731;23;20874;-82
2022/01/24 07:34:09;;;;;;;24.00;17.47;;;6.10;99.90;;;;;;6205169;23;20174;-79
2022/01/24 07:36:36;;;;;;;28.60;19.10;;;6.10;99.90;;;;;;6205493;23;20170;-81
2022/01/24 07:39:03;;;;;;;26.97;19.67;;;6.10;99.90;;;;;;6206882;23;20201;-81
2022/01/24 07:41:32;;;;;;;31.50;21.73;;;6.10;99.90;;;;;;6182091;23;20211;-80
2022/01/24 07:44:00;;;;;;;36.03;22.87;;;6.10;99.90;;;;;;6175970;23;20171;-78
2022/01/24 07:46:28;;;;;;;36.13;23.50;;;6.10;99.90;;;;;;6174944;23;20510;-80
2022/01/24 07:48:55;;;;;;;32.23;22.43;;;6.10;99.90;;;;;;6177151;23;20178;-80
2022/01/24 07:51:23;;;;;;;34.20;22.63;;;6.10;99.90;;;;;;6175476;23;20235;-80
2022/01/24 07:53:50;;;;;;;40.93;25.80;;;6.10;99.90;;;;;;6176399;23;20189;-80
2022/01/24 07:56:17;;;;;;;35.37;23.30;;;6.10;99.90;;;;;;6175085;23;20178;-79
2022/01/24 07:58:44;;;;;;;37.37;23.87;;;6.10;99.90;;;;;;6174996;23;20174;-80
2022/01/24 08:01:11;;;;;;;40.43;25.83;;;6.10;99.90;;;;;;6173906;23;20217;-80
2022/01/24 08:03:38;;;;;;;35.63;22.90;;;6.10;99.90;;;;;;6174734;23;20518;-79
2022/01/24 08:06:05;;;;;;;33.80;21.40;;;6.10;99.90;;;;;;6176796;23;20584;-80
2022/01/24 08:08:33;;;;;;;38.07;24.90;;;6.10;99.90;;;;;;6175594;23;20191;-79
2022/01/24 08:11:00;;;;;;;41.67;27.23;;;6.10;99.90;;;;;;6178053;23;20448;-79
2022/01/24 08:13:27;;;;;;;37.43;24.47;;;6.10;99.90;;;;;;6177376;23;20439;-78
2022/01/24 08:15:54;;;;;;;40.93;26.03;;;6.10;99.90;;;;;;6176245;23;20174;-78
2022/01/24 08:18:20;;;;;;;35.87;23.60;;;6.10;99.90;;;;;;6176616;23;20188;-78
2022/01/24 08:20:47;;;;;;;35.53;24.30;;;6.10;99.90;;;;;;6176760;23;20496;-79
2022/01/24 08:23:16;;;;;;;36.43;22.80;;;6.10;99.90;;;;;;6176215;23;20171;-79
2022/01/24 08:25:44;;;;;;;35.43;24.27;;;6.10;99.90;;;;;;6175720;23;20202;-79
2022/01/24 08:28:11;;;;;;;34.83;22.57;;;6.10;99.90;;;;;;6151315;23;20467;-80
2022/01/24 08:30:38;;;;;;;33.80;23.20;;;6.10;99.90;;;;;;6147028;23;20186;-78
2022/01/24 08:33:06;;;;;;;37.23;23.77;;;6.10;99.90;;;;;;6145906;23;20175;-80
2022/01/24 08:35:33;;;;;;;37.07;24.50;;;6.20;99.90;;;;;;6146597;23;20175;-82
2022/01/24 08:38:00;;;;;;;38.77;24.43;;;6.20;99.90;;;;;;6148469;23;20176;-81
2022/01/24 08:41:03;;;;;;;36.00;24.57;;;6.20;99.90;;;;;;6127294;23;20369;-80
2022/01/24 08:43:40;;;;;;;37.90;23.93;;;6.20;99.90;;;;;;6149165;23;20172;-82
2022/01/24 08:46:07;;;;;;;37.40;23.70;;;6.20;99.90;;;;;;6150199;23;20594;-78
2022/01/24 08:48:34;;;;;;;35.23;24.37;;;6.20;99.90;;;;;;6149377;23;20175;-79
2022/01/24 08:51:01;;;;;;;47.93;28.93;;;6.20;99.90;;;;;;6149507;23;20184;-80
2022/01/24 08:53:31;;;;;;;42.47;27.23;;;6.20;99.90;;;;;;6148809;23;20179;-81
2022/01/24 08:56:00;;;;;;;39.13;25.17;;;6.20;99.90;;;;;;6148556;23;20171;-80
2022/01/24 08:58:27;;;;;;;42.13;26.63;;;6.30;99.90;;;;;;6146550;23;20640;-80
2022/01/24 09:00:54;;;;;;;40.90;26.20;;;6.30;99.90;;;;;;6148895;23;20263;-82
2022/01/24 09:03:21;;;;;;;40.80;27.40;;;6.30;99.90;;;;;;6150106;23;20180;-82
2022/01/24 09:05:49;;;;;;;42.17;26.97;;;6.20;99.90;;;;;;6148793;23;20198;-81
2022/01/24 09:08:16;;;;;;;43.27;28.40;;;6.20;99.90;;;;;;6149269;23;20175;-81
2022/01/24 09:10:46;;;;;;;44.97;28.40;;;6.20;99.90;;;;;;6149412;23;20215;-82
2022/01/24 09:13:15;;;;;;;40.60;27.20;;;6.30;99.90;;;;;;6149245;23;20543;-84
2022/01/24 09:15:42;;;;;;;41.47;26.93;;;6.30;99.90;;;;;;6147780;23;20178;-82
2022/01/24 09:18:08;;;;;;;38.73;25.03;;;6.30;99.90;;;;;;6148306;23;20178;-81
2022/01/24 09:20:38;;;;;;;39.03;26.47;;;6.30;99.90;;;;;;6148546;23;20618;-81
2022/01/24 09:23:05;;;;;;;40.47;26.03;;;6.30;99.90;;;;;;6147869;23;20178;-82
2022/01/24 09:25:32;;;;;;;41.83;26.27;;;6.30;99.90;;;;;;6147254;23;20179;-81
2022/01/24 09:27:59;;;;;;;39.13;25.83;;;6.30;99.90;;;;;;6147852;23;20254;-81
2022/01/24 09:30:28;;;;;;;42.80;28.37;;;6.30;99.90;;;;;;6147733;23;20569;-82
2022/01/24 09:32:55;;;;;;;39.80;26.57;;;6.30;99.90;;;;;;6147658;23;20182;-80
2022/01/24 09:35:22;;;;;;;36.53;25.60;;;6.30;99.90;;;;;;6146680;23;20179;-80
2022/01/24 09:37:50;;;;;;;40.07;27.30;;;6.30;99.90;;;;;;6147448;23;20182;-80
2022/01/24 09:40:19;;;;;;;39.87;26.07;;;6.30;99.90;;;;;;6145754;23;20207;-80
2022/01/24 09:42:47;;;;;;;37.20;26.37;;;6.30;99.90;;;;;;6146823;23;20171;-79
2022/01/24 09:45:16;;;;;;;43.30;28.23;;;6.40;99.90;;;;;;6146412;23;20164;-79
2022/01/24 09:47:44;;;;;;;39.37;25.63;;;6.40;99.90;;;;;;6145849;23;20199;-80
2022/01/24 09:50:14;;;;;;;40.00;26.60;;;6.40;99.90;;;;;;6146287;23;20226;-81
2022/01/24 09:52:42;;;;;;;43.53;29.07;;;6.40;99.90;;;;;;6144877;23;20667;-79
2022/01/24 09:55:10;;;;;;;42.57;28.73;;;6.40;99.90;;;;;;6145759;23;20210;-80
2022/01/24 09:57:37;;;;;;;41.50;28.00;;;6.40;99.90;;;;;;6145895;23;20171;-81
2022/01/24 10:00:06;;;;;;;40.37;27.17;;;6.40;99.90;;;;;;6145547;23;20182;-81
2022/01/24 10:02:33;;;;;;;36.70;25.40;;;6.40;99.90;;;;;;6146446;23;20345;-80
2022/01/24 10:05:15;;;;;;;41.40;27.33;;;6.40;99.90;;;;;;6146754;23;20187;-79
2022/01/24 10:07:49;;;;;;;38.10;26.50;;;6.50;99.90;;;;;;6144688;23;20194;-80
2022/01/24 10:10:21;;;;;;;36.90;24.53;;;6.50;99.90;;;;;;6146677;23;20167;-80
2022/01/24 10:18:18;;;;;;;41.93;27.47;;;6.50;99.90;;;;;;6145816;23;20170;-80
2022/01/24 10:20:46;;;;;;;42.23;27.73;;;6.50;99.90;;;;;;6146305;23;20202;-81
2022/01/24 10:23:16;;;;;;;36.33;25.43;;;6.50;99.90;;;;;;6145042;23;20579;-80
2022/01/24 10:25:53;;;;;;;37.63;24.97;;;6.60;99.90;;;;;;6145095;23;20179;-80
2022/01/24 10:28:32;;;;;;;44.73;27.93;;;6.60;99.90;;;;;;6145068;23;20199;-79
2022/01/24 10:31:08;;;;;;;38.80;27.00;;;6.60;99.90;;;;;;6145457;23;20560;-80
2022/01/24 10:33:59;;;;;;;41.07;26.97;;;6.60;99.90;;;;;;6146900;23;20167;-81
2022/01/24 10:36:43;;;;;;;43.53;27.87;;;6.60;99.90;;;;;;6146410;23;20226;-81
2022/01/24 10:39:18;;;;;;;38.20;26.97;;;6.70;99.90;;;;;;6144564;23;20175;-79
2022/01/24 10:41:59;;;;;;;37.73;25.43;;;6.70;99.90;;;;;;6146342;23;20214;-80
2022/01/24 10:44:31;;;;;;;39.87;28.07;;;6.70;99.90;;;;;;6146146;23;20432;-81
2022/01/24 10:47:19;;;;;;;40.10;26.90;;;6.70;99.90;;;;;;6146110;23;20200;-80
2022/01/24 10:49:47;;;;;;;44.70;29.60;;;6.70;99.90;;;;;;6144796;23;20202;-81
2022/01/24 10:52:19;;;;;;;45.83;29.57;;;6.70;99.90;;;;;;6146634;23;20184;-78
2022/01/24 10:54:46;;;;;;;45.13;29.50;;;6.70;99.90;;;;;;6145924;23;20553;-79
2022/01/24 10:57:22;;;;;;;43.53;28.37;;;6.70;99.90;;;;;;6143885;23;20593;-80
2022/01/24 10:59:50;;;;;;;39.47;27.77;;;6.70;99.90;;;;;;6146422;23;20174;-80
2022/01/24 11:02:18;;;;;;;42.07;27.37;;;6.70;99.90;;;;;;6145735;23;20253;-81
2022/01/24 11:04:45;;;;;;;38.90;26.17;;;6.80;99.90;;;;;;6142796;23;20179;-80
2022/01/24 11:07:12;;;;;;;46.63;29.57;;;6.80;99.90;;;;;;6145387;23;20207;-80
2022/01/24 11:09:41;;;;;;;45.80;28.90;;;6.80;99.90;;;;;;6145617;23;20179;-80
2022/01/24 11:12:11;;;;;;;41.13;27.33;;;6.80;99.90;;;;;;6144486;23;20529;-81
2022/01/24 11:14:40;;;;;;;43.10;29.17;;;6.80;99.90;;;;;;6146136;23;20207;-80
2022/01/24 11:17:10;;;;;;;49.67;32.30;;;6.80;99.90;;;;;;6145877;23;20175;-81
2022/01/24 11:19:41;;;;;;;48.40;30.30;;;6.90;99.90;;;;;;6143663;23;20243;-80
2022/01/24 11:22:19;;;;;;;51.33;32.97;;;6.90;99.90;;;;;;6146781;23;20171;-80
2022/01/24 11:24:53;;;;;;;52.53;32.87;;;6.90;99.90;;;;;;6145580;23;20571;-81
2022/01/24 11:27:20;;;;;;;51.63;34.60;;;6.90;99.90;;;;;;6145807;23;20206;-81
2022/01/24 11:29:50;;;;;;;51.93;34.40;;;6.90;99.90;;;;;;6145662;23;20514;-79
2022/01/24 11:32:20;;;;;;;45.23;31.60;;;6.90;99.90;;;;;;6144323;23;20190;-81
2022/01/24 11:34:49;;;;;;;49.13;31.50;;;6.90;99.90;;;;;;6145074;23;20199;-79
2022/01/24 11:37:33;;;;;;;53.47;34.50;;;6.90;99.90;;;;;;6144917;23;20820;-79
2022/01/24 11:40:04;;;;;;;50.13;32.00;;;6.90;99.90;;;;;;6143322;23;20265;-78
2022/01/24 11:42:34;;;;;;;56.33;34.33;;;6.90;99.90;;;;;;6144566;23;20175;-80
2022/01/24 11:45:05;;;;;;;54.43;35.87;;;6.90;99.90;;;;;;6144301;23;20167;-78
2022/01/24 11:47:32;;;;;;;51.13;34.37;;;6.90;99.90;;;;;;6144163;23;20289;-79
2022/01/24 11:50:00;;;;;;;55.80;36.00;;;6.80;99.90;;;;;;6145191;23;20179;-80
2022/01/24 11:52:32;;;;;;;55.03;36.70;;;6.80;99.90;;;;;;6145870;23;20791;-81
2022/01/24 11:55:14;;;;;;;53.60;33.63;;;6.80;99.90;;;;;;6147111;23;20176;-81
2022/01/24 11:57:44;;;;;;;51.60;33.80;;;6.80;99.90;;;;;;6145896;23;20187;-79
2022/01/24 12:00:21;;;;;;;51.43;32.70;;;6.80;99.90;;;;;;6145725;23;20817;-80
2022/01/24 12:02:50;;;;;;;51.50;34.90;;;6.80;99.90;;;;;;6146948;23;20175;-80
2022/01/24 12:05:18;;;;;;;53.93;35.43;;;6.80;99.90;;;;;;6146283;23;20523;-79
2022/01/24 12:07:47;;;;;;;53.90;37.37;;;6.90;99.90;;;;;;6146863;23;20222;-79
2022/01/24 12:10:44;;;;;;;59.20;38.07;;;6.90;99.90;;;;;;6144737;23;20413;-80
2022/01/24 12:13:18;;;;;;;59.23;37.30;;;6.90;99.90;;;;;;6112277;23;20182;-79
2022/01/24 12:15:55;;;;;;;51.80;34.30;;;6.90;99.90;;;;;;6145472;23;20693;-80
2022/01/24 12:18:43;;;;;;;55.03;36.83;;;6.90;99.90;;;;;;6146642;23;20186;-81
2022/01/24 12:21:10;;;;;;;54.93;36.53;;;6.90;99.90;;;;;;6146128;23;20800;-78
2022/01/24 12:23:39;;;;;;;56.33;37.80;;;6.90;99.90;;;;;;6146124;23;20427;-80
2022/01/24 12:26:09;;;;;;;61.50;38.73;;;6.90;99.90;;;;;;6146729;23;20520;-81
2022/01/24 12:28:47;;;;;;;58.00;37.43;;;6.90;99.90;;;;;;6144985;23;20168;-80
2022/01/24 12:31:22;;;;;;;56.93;38.40;;;6.80;99.90;;;;;;6146967;23;20171;-80
2022/01/24 12:34:00;;;;;;;60.57;38.50;;;6.80;99.90;;;;;;6146132;23;20159;-79
2022/01/24 12:37:00;;;;;;;56.57;37.70;;;6.80;99.90;;;;;;6146239;23;20440;-81
2022/01/24 12:39:32;;;;;;;56.87;36.93;;;6.90;99.90;;;;;;6146550;23;20176;-78
2022/01/24 12:42:04;;;;;;;54.73;35.97;;;6.90;99.90;;;;;;6146027;23;20210;-79
2022/01/24 12:47:19;;;;;;;60.30;37.60;;;6.90;99.90;;;;;;6147147;23;20198;-79
2022/01/24 12:49:48;;;;;;;54.60;37.37;;;6.80;99.90;;;;;;6145989;23;20187;-81
2022/01/24 12:52:17;;;;;;;58.97;37.00;;;6.80;99.90;;;;;;6146483;23;20172;-81
2022/01/24 12:54:46;;;;;;;57.13;37.10;;;6.80;99.90;;;;;;6145279;23;20171;-79
2022/01/24 12:57:16;;;;;;;58.93;37.07;;;6.90;99.90;;;;;;6145739;23;20172;-80
2022/01/24 12:59:53;;;;;;;56.43;37.07;;;6.80;99.90;;;;;;6147537;23;20179;-80
2022/01/24 13:02:24;;;;;;;57.07;36.80;;;6.90;99.90;;;;;;6146954;23;20282;-81
2022/01/24 13:04:52;;;;;;;58.60;37.27;;;6.90;99.90;;;;;;6145905;23;20178;-81
2022/01/24 13:07:20;;;;;;;54.97;36.27;;;6.90;99.90;;;;;;6146439;23;20275;-79
2022/01/24 13:09:46;;;;;;;59.40;37.87;;;6.90;99.90;;;;;;6146411;23;20180;-80
2022/01/24 13:12:15;;;;;;;53.90;35.57;;;6.90;99.90;;;;;;6145621;23;20176;-81
2022/01/24 13:14:47;;;;;;;52.30;35.00;;;6.90;99.90;;;;;;6145631;23;20172;-81
2022/01/24 13:22:50;;;;;;;54.97;36.37;;;6.90;99.90;;;;;;6146974;23;20266;-78
2022/01/24 13:25:22;;;;;;;55.77;37.37;;;6.90;99.90;;;;;;6144723;23;20482;-79
2022/01/24 13:27:52;;;;;;;49.67;33.53;;;6.90;99.90;;;;;;6141468;23;20346;-79
2022/01/24 13:30:23;;;;;;;50.23;32.90;;;6.90;99.90;;;;;;6145214;23;20211;-78
2022/01/24 13:32:52;;;;;;;48.40;32.93;;;7.00;99.90;;;;;;6143960;23;20167;-78
2022/01/24 13:35:25;;;;;;;48.60;31.97;;;7.00;99.90;;;;;;6145093;23;20176;-79
2022/01/24 13:37:55;;;;;;;51.27;33.63;;;7.10;99.90;;;;;;6146440;23;20168;-77
2022/01/24 13:40:51;;;;;;;62.03;38.87;;;7.10;99.90;;;;;;6143208;23;20203;-77
2022/01/24 13:43:31;;;;;;;52.93;33.33;;;7.10;99.90;;;;;;6141439;23;20184;-79
2022/01/24 13:45:59;;;;;;;51.67;34.53;;;7.10;99.90;;;;;;6142772;23;20222;-79
2022/01/24 13:48:26;;;;;;;55.47;35.73;;;7.10;99.90;;;;;;6143584;23;20221;-79
2022/01/24 13:50:54;;;;;;;57.50;35.77;;;7.10;99.90;;;;;;6144288;23;20164;-78
2022/01/24 13:53:32;;;;;;;52.13;34.80;;;7.10;99.90;;;;;;6143556;23;20882;-79
2022/01/24 13:55:59;;;;;;;49.83;32.00;;;7.10;99.90;;;;;;6144421;23;20175;-79
2022/01/24 13:58:28;;;;;;;46.30;31.47;;;7.10;99.90;;;;;;6144444;23;20179;-78
2022/01/24 14:00:59;;;;;;;54.93;35.67;;;7.10;99.90;;;;;;6144012;23;20179;-77
2022/01/24 14:03:26;;;;;;;49.90;33.80;;;7.10;99.90;;;;;;6144857;23;20182;-77
2022/01/24 14:06:14;;;;;;;50.87;33.73;;;7.10;99.90;;;;;;6144804;23;20179;-77